sensor_id;sensor_type;location;lat;lon;timestamp;temperature;humidity
11925;DHT22;6022;48.768;18.608;2022-11-20T00:01:31;2.30;99.90
11925;DHT22;6022;48.768;18.608;2022-11-20T00:04:00;2.20;99.90
11925;DHT22;6022;48.768;18.608;2022-11-20T00:06:32;2.20;99.90
11925;DHT22;6022;48.768;18.608;2022-11-20T00:09:00;2.30;99.90
11925;DHT22;6022;48.768;18.608;2022-11-20T00:11:29;2.20;99.90
11925;DHT22;6022;48.768;18.608;2022-11-20T00:14:00;2.10;99.90
11925;DHT22;6022;48.768;18.608;2022-11-20T00:16:30;2.10;99.90
11925;DHT22;6022;48.768;18.608;2022-11-20T00:19:04;2.10;99.90
11925;DHT22;6022;48.768;18.608;2022-11-20T00:21:39;2.00;99.90
11925;DHT22;6022;48.768;18.608;2022-11-20T00:24:09;2.20;99.90
11925;DHT22;6022;48.768;18.608;2022-11-20T00:26:37;2.40;99.90
11925;DHT22;6022;48.768;18.608;2022-11-20T00:29:08;2.20;99.90
11925;DHT22;6022;48.768;18.608;2022-11-20T00:31:37;2.40;99.90
11925;DHT22;6022;48.768;18.608;2022-11-20T00:34:05;2.20;99.90
11925;DHT22;6022;48.768;18.608;2022-11-20T00:36:34;2.20;99.90
11925;DHT22;6022;48.768;18.608;2022-11-20T00:39:02;2.20;99.90
11925;DHT22;6022;48.768;18.608;2022-11-20T00:41:30;2.10;99.90
11925;DHT22;6022;48.768;18.608;2022-11-20T00:43:57;2.20;99.90
11925;DHT22;6022;48.768;18.608;2022-11-20T00:46:26;2.20;99.90
11925;DHT22;6022;48.768;18.608;2022-11-20T00:48:55;2.40;99.90
11925;DHT22;6022;48.768;18.608;2022-11-20T00:51:25;2.20;99.90
11925;DHT22;6022;48.768;18.608;2022-11-20T00:54:00;2.20;99.90
11925;DHT22;6022;48.768;18.608;2022-11-20T00:56:28;2.30;99.90
11925;DHT22;6022;48.768;18.608;2022-11-20T00:59:00;2.20;99.90
11925;DHT22;6022;48.768;18.608;2022-11-20T01:01:28;2.50;99.90
11925;DHT22;6022;48.768;18.608;2022-11-20T01:03:58;2.40;99.90
11925;DHT22;6022;48.768;18.608;2022-11-20T01:06:35;2.30;99.90
11925;DHT22;6022;48.768;18.608;2022-11-20T01:09:07;2.30;99.90
11925;DHT22;6022;48.768;18.608;2022-11-20T01:11:40;2.40;99.90
11925;DHT22;6022;48.768;18.608;2022-11-20T01:14:13;2.50;99.90
11925;DHT22;6022;48.768;18.608;2022-11-20T01:16:48;2.40;99.90
11925;DHT22;6022;48.768;18.608;2022-11-20T01:19:20;2.30;99.90
11925;DHT22;6022;48.768;18.608;2022-11-20T01:21:53;2.40;99.90
11925;DHT22;6022;48.768;18.608;2022-11-20T01:24:22;2.40;99.90
11925;DHT22;6022;48.768;18.608;2022-11-20T01:26:50;2.40;99.90
11925;DHT22;6022;48.768;18.608;2022-11-20T01:29:23;2.20;99.90
11925;DHT22;6022;48.768;18.608;2022-11-20T01:31:51;2.50;99.90
11925;DHT22;6022;48.768;18.608;2022-11-20T01:34:21;2.40;99.90
11925;DHT22;6022;48.768;18.608;2022-11-20T01:36:49;2.50;99.90
11925;DHT22;6022;48.768;18.608;2022-11-20T01:39:20;2.60;99.90
11925;DHT22;6022;48.768;18.608;2022-11-20T01:41:51;2.60;99.90
11925;DHT22;6022;48.768;18.608;2022-11-20T01:44:49;2.40;99.90
11925;DHT22;6022;48.768;18.608;2022-11-20T01:47:43;2.60;99.90
11925;DHT22;6022;48.768;18.608;2022-11-20T01:50:24;2.50;99.90
11925;DHT22;6022;48.768;18.608;2022-11-20T01:53:00;2.40;99.90
11925;DHT22;6022;48.768;18.608;2022-11-20T01:55:36;2.40;99.90
11925;DHT22;6022;48.768;18.608;2022-11-20T01:58:08;2.30;99.90
11925;DHT22;6022;48.768;18.608;2022-11-20T02:00:36;2.40;99.90
11925;DHT22;6022;48.768;18.608;2022-11-20T02:03:07;2.30;99.90
11925;DHT22;6022;48.768;18.608;2022-11-20T02:08:33;2.30;99.90
11925;DHT22;6022;48.768;18.608;2022-11-20T02:11:01;2.20;99.90
11925;DHT22;6022;48.768;18.608;2022-11-20T02:13:29;2.30;99.90
11925;DHT22;6022;48.768;18.608;2022-11-20T02:18:46;2.30;99.90
11925;DHT22;6022;48.768;18.608;2022-11-20T02:27:00;2.20;99.90
11925;DHT22;6022;48.768;18.608;2022-11-20T02:29:40;2.20;99.90
11925;DHT22;6022;48.768;18.608;2022-11-20T02:32:38;2.20;99.90
11925;DHT22;6022;48.768;18.608;2022-11-20T02:37:50;2.30;99.90
11925;DHT22;6022;48.768;18.608;2022-11-20T02:40:21;2.00;99.90
11925;DHT22;6022;48.768;18.608;2022-11-20T02:42:53;2.10;99.90
11925;DHT22;6022;48.768;18.608;2022-11-20T02:45:22;2.20;99.90
11925;DHT22;6022;48.768;18.608;2022-11-20T02:47:53;2.40;99.90
11925;DHT22;6022;48.768;18.608;2022-11-20T02:50:21;2.10;99.90
11925;DHT22;6022;48.768;18.608;2022-11-20T02:52:49;2.30;99.90
11925;DHT22;6022;48.768;18.608;2022-11-20T02:55:18;2.10;99.90
11925;DHT22;6022;48.768;18.608;2022-11-20T02:57:46;2.10;99.90
11925;DHT22;6022;48.768;18.608;2022-11-20T03:00:14;2.20;99.90
11925;DHT22;6022;48.768;18.608;2022-11-20T03:02:42;2.30;99.90
11925;DHT22;6022;48.768;18.608;2022-11-20T03:05:12;2.30;99.90
11925;DHT22;6022;48.768;18.608;2022-11-20T03:07:40;2.00;99.90
11925;DHT22;6022;48.768;18.608;2022-11-20T03:10:08;2.10;99.90
11925;DHT22;6022;48.768;18.608;2022-11-20T03:12:37;2.10;99.90
11925;DHT22;6022;48.768;18.608;2022-11-20T03:15:06;2.30;99.90
11925;DHT22;6022;48.768;18.608;2022-11-20T03:17:35;2.00;99.90
11925;DHT22;6022;48.768;18.608;2022-11-20T03:20:04;2.20;99.90
11925;DHT22;6022;48.768;18.608;2022-11-20T03:22:32;1.90;99.90
11925;DHT22;6022;48.768;18.608;2022-11-20T03:25:00;2.30;99.90
11925;DHT22;6022;48.768;18.608;2022-11-20T03:27:32;2.10;99.90
11925;DHT22;6022;48.768;18.608;2022-11-20T03:30:01;2.30;99.90
11925;DHT22;6022;48.768;18.608;2022-11-20T03:32:29;2.10;99.90
11925;DHT22;6022;48.768;18.608;2022-11-20T03:34:56;2.30;99.90
11925;DHT22;6022;48.768;18.608;2022-11-20T03:37:24;2.00;99.90
11925;DHT22;6022;48.768;18.608;2022-11-20T03:39:52;2.10;99.90
11925;DHT22;6022;48.768;18.608;2022-11-20T03:42:20;2.10;99.90
11925;DHT22;6022;48.768;18.608;2022-11-20T03:45:07;2.00;99.90
11925;DHT22;6022;48.768;18.608;2022-11-20T03:47:35;2.00;99.90
11925;DHT22;6022;48.768;18.608;2022-11-20T03:50:03;2.00;99.90
11925;DHT22;6022;48.768;18.608;2022-11-20T03:52:32;2.00;99.90
11925;DHT22;6022;48.768;18.608;2022-11-20T03:55:00;2.00;99.90
11925;DHT22;6022;48.768;18.608;2022-11-20T03:57:27;2.00;99.90
11925;DHT22;6022;48.768;18.608;2022-11-20T03:59:55;2.00;99.90
11925;DHT22;6022;48.768;18.608;2022-11-20T04:02:23;2.00;99.90
11925;DHT22;6022;48.768;18.608;2022-11-20T04:04:51;2.20;99.90
11925;DHT22;6022;48.768;18.608;2022-11-20T04:07:19;1.90;99.90
11925;DHT22;6022;48.768;18.608;2022-11-20T04:09:48;2.00;99.90
11925;DHT22;6022;48.768;18.608;2022-11-20T04:12:16;2.00;99.90
11925;DHT22;6022;48.768;18.608;2022-11-20T04:14:44;2.20;99.90
11925;DHT22;6022;48.768;18.608;2022-11-20T04:17:12;2.10;99.90
11925;DHT22;6022;48.768;18.608;2022-11-20T04:19:41;2.10;99.90
11925;DHT22;6022;48.768;18.608;2022-11-20T04:22:09;1.80;99.90
11925;DHT22;6022;48.768;18.608;2022-11-20T04:24:38;2.10;99.90
11925;DHT22;6022;48.768;18.608;2022-11-20T04:27:06;2.00;99.90
11925;DHT22;6022;48.768;18.608;2022-11-20T04:29:36;2.00;99.90
11925;DHT22;6022;48.768;18.608;2022-11-20T04:32:04;1.80;99.90
11925;DHT22;6022;48.768;18.608;2022-11-20T04:34:32;2.00;99.90
11925;DHT22;6022;48.768;18.608;2022-11-20T04:36:59;1.90;99.90
11925;DHT22;6022;48.768;18.608;2022-11-20T04:39:27;2.10;99.90
11925;DHT22;6022;48.768;18.608;2022-11-20T04:41:56;2.10;99.90
11925;DHT22;6022;48.768;18.608;2022-11-20T04:44:43;1.90;99.90
11925;DHT22;6022;48.768;18.608;2022-11-20T04:47:10;1.80;99.90
11925;DHT22;6022;48.768;18.608;2022-11-20T04:49:40;2.10;99.90
11925;DHT22;6022;48.768;18.608;2022-11-20T04:52:07;2.00;99.90
11925;DHT22;6022;48.768;18.608;2022-11-20T04:54:34;2.10;99.90
11925;DHT22;6022;48.768;18.608;2022-11-20T04:57:02;2.10;99.90
11925;DHT22;6022;48.768;18.608;2022-11-20T04:59:29;2.00;99.90
11925;DHT22;6022;48.768;18.608;2022-11-20T05:01:57;2.00;99.90
11925;DHT22;6022;48.768;18.608;2022-11-20T05:04:25;1.70;99.90
11925;DHT22;6022;48.768;18.608;2022-11-20T05:06:52;2.00;99.90
11925;DHT22;6022;48.768;18.608;2022-11-20T05:09:20;2.00;99.90
11925;DHT22;6022;48.768;18.608;2022-11-20T05:11:47;1.80;99.90
11925;DHT22;6022;48.768;18.608;2022-11-20T05:14:17;2.10;99.90
11925;DHT22;6022;48.768;18.608;2022-11-20T05:16:44;2.00;99.90
11925;DHT22;6022;48.768;18.608;2022-11-20T05:19:12;2.00;99.90
11925;DHT22;6022;48.768;18.608;2022-11-20T05:21:39;2.00;99.90
11925;DHT22;6022;48.768;18.608;2022-11-20T05:24:07;2.00;99.90
11925;DHT22;6022;48.768;18.608;2022-11-20T05:26:35;2.00;99.90
11925;DHT22;6022;48.768;18.608;2022-11-20T05:29:03;2.10;99.90
11925;DHT22;6022;48.768;18.608;2022-11-20T05:31:31;2.10;99.90
11925;DHT22;6022;48.768;18.608;2022-11-20T05:33:58;2.20;99.90
11925;DHT22;6022;48.768;18.608;2022-11-20T05:36:27;1.80;99.90
11925;DHT22;6022;48.768;18.608;2022-11-20T05:38:54;2.30;99.90
11925;DHT22;6022;48.768;18.608;2022-11-20T05:41:27;2.10;99.90
11925;DHT22;6022;48.768;18.608;2022-11-20T05:43:56;2.00;99.90
11925;DHT22;6022;48.768;18.608;2022-11-20T05:46:25;2.00;99.90
11925;DHT22;6022;48.768;18.608;2022-11-20T05:48:56;2.00;99.90
11925;DHT22;6022;48.768;18.608;2022-11-20T05:51:25;2.00;99.90
11925;DHT22;6022;48.768;18.608;2022-11-20T05:53:55;1.80;99.90
11925;DHT22;6022;48.768;18.608;2022-11-20T05:56:23;2.10;99.90
11925;DHT22;6022;48.768;18.608;2022-11-20T05:58:52;2.00;99.90
11925;DHT22;6022;48.768;18.608;2022-11-20T06:01:23;2.00;99.90
11925;DHT22;6022;48.768;18.608;2022-11-20T06:03:53;2.00;99.90
11925;DHT22;6022;48.768;18.608;2022-11-20T06:06:21;2.00;99.90
11925;DHT22;6022;48.768;18.608;2022-11-20T06:08:49;2.00;99.90
11925;DHT22;6022;48.768;18.608;2022-11-20T06:11:17;2.00;99.90
11925;DHT22;6022;48.768;18.608;2022-11-20T06:13:46;1.90;99.90
11925;DHT22;6022;48.768;18.608;2022-11-20T06:16:18;1.90;99.90
11925;DHT22;6022;48.768;18.608;2022-11-20T06:18:46;1.90;99.90
11925;DHT22;6022;48.768;18.608;2022-11-20T06:21:16;2.10;99.90
11925;DHT22;6022;48.768;18.608;2022-11-20T06:23:46;2.20;99.90
11925;DHT22;6022;48.768;18.608;2022-11-20T06:26:20;2.30;99.90
11925;DHT22;6022;48.768;18.608;2022-11-20T06:28:50;2.30;99.90
11925;DHT22;6022;48.768;18.608;2022-11-20T06:31:20;2.30;99.90
11925;DHT22;6022;48.768;18.608;2022-11-20T06:33:50;2.10;99.90
11925;DHT22;6022;48.768;18.608;2022-11-20T06:36:19;2.30;99.90
11925;DHT22;6022;48.768;18.608;2022-11-20T06:38:50;2.20;99.90
11925;DHT22;6022;48.768;18.608;2022-11-20T06:41:20;2.30;99.90
11925;DHT22;6022;48.768;18.608;2022-11-20T06:43:49;2.30;99.90
11925;DHT22;6022;48.768;18.608;2022-11-20T06:46:17;2.20;99.90
11925;DHT22;6022;48.768;18.608;2022-11-20T06:48:48;2.10;99.90
11925;DHT22;6022;48.768;18.608;2022-11-20T06:51:17;2.00;99.90
11925;DHT22;6022;48.768;18.608;2022-11-20T06:53:44;1.90;99.90
11925;DHT22;6022;48.768;18.608;2022-11-20T06:56:12;2.20;99.90
11925;DHT22;6022;48.768;18.608;2022-11-20T06:58:40;2.20;99.90
11925;DHT22;6022;48.768;18.608;2022-11-20T07:01:13;1.80;99.90
11925;DHT22;6022;48.768;18.608;2022-11-20T07:03:42;2.00;99.90
11925;DHT22;6022;48.768;18.608;2022-11-20T07:06:10;1.90;99.90
11925;DHT22;6022;48.768;18.608;2022-11-20T07:08:39;2.10;99.90
11925;DHT22;6022;48.768;18.608;2022-11-20T07:11:11;2.10;99.90
11925;DHT22;6022;48.768;18.608;2022-11-20T07:13:39;2.00;99.90
11925;DHT22;6022;48.768;18.608;2022-11-20T07:16:08;2.40;99.90
11925;DHT22;6022;48.768;18.608;2022-11-20T07:18:38;2.20;99.90
11925;DHT22;6022;48.768;18.608;2022-11-20T07:21:08;2.30;99.90
11925;DHT22;6022;48.768;18.608;2022-11-20T07:23:37;2.40;99.90
11925;DHT22;6022;48.768;18.608;2022-11-20T07:26:08;2.50;99.90
11925;DHT22;6022;48.768;18.608;2022-11-20T07:28:37;2.30;99.90
11925;DHT22;6022;48.768;18.608;2022-11-20T07:31:06;2.60;99.90
11925;DHT22;6022;48.768;18.608;2022-11-20T07:33:40;2.40;99.90
11925;DHT22;6022;48.768;18.608;2022-11-20T07:36:09;2.40;99.90
11925;DHT22;6022;48.768;18.608;2022-11-20T07:38:40;2.60;99.90
11925;DHT22;6022;48.768;18.608;2022-11-20T07:41:08;2.40;99.90
11925;DHT22;6022;48.768;18.608;2022-11-20T07:43:41;2.40;99.90
11925;DHT22;6022;48.768;18.608;2022-11-20T07:46:17;2.30;99.90
11925;DHT22;6022;48.768;18.608;2022-11-20T07:48:48;2.50;99.90
11925;DHT22;6022;48.768;18.608;2022-11-20T07:51:16;2.40;99.90
11925;DHT22;6022;48.768;18.608;2022-11-20T07:53:44;2.50;99.90
11925;DHT22;6022;48.768;18.608;2022-11-20T07:56:20;2.40;99.90
11925;DHT22;6022;48.768;18.608;2022-11-20T07:58:53;2.50;99.90
11925;DHT22;6022;48.768;18.608;2022-11-20T08:01:21;2.60;99.90
11925;DHT22;6022;48.768;18.608;2022-11-20T08:03:49;2.30;99.90
11925;DHT22;6022;48.768;18.608;2022-11-20T08:06:25;2.50;99.90
11925;DHT22;6022;48.768;18.608;2022-11-20T08:08:53;2.50;99.90
11925;DHT22;6022;48.768;18.608;2022-11-20T08:11:21;2.40;99.90
11925;DHT22;6022;48.768;18.608;2022-11-20T08:14:07;2.60;99.90
11925;DHT22;6022;48.768;18.608;2022-11-20T08:16:42;2.70;99.90
11925;DHT22;6022;48.768;18.608;2022-11-20T08:19:17;2.60;99.90
11925;DHT22;6022;48.768;18.608;2022-11-20T08:21:48;2.90;99.90
11925;DHT22;6022;48.768;18.608;2022-11-20T08:24:16;3.10;99.90
11925;DHT22;6022;48.768;18.608;2022-11-20T08:26:45;2.80;99.90
11925;DHT22;6022;48.768;18.608;2022-11-20T08:29:12;3.10;99.90
11925;DHT22;6022;48.768;18.608;2022-11-20T08:31:41;2.90;99.90
11925;DHT22;6022;48.768;18.608;2022-11-20T08:34:10;2.80;99.90
11925;DHT22;6022;48.768;18.608;2022-11-20T08:36:44;2.80;99.90
11925;DHT22;6022;48.768;18.608;2022-11-20T08:39:13;2.80;99.90
11925;DHT22;6022;48.768;18.608;2022-11-20T08:41:42;2.80;99.90
11925;DHT22;6022;48.768;18.608;2022-11-20T08:44:10;3.00;99.90
11925;DHT22;6022;48.768;18.608;2022-11-20T08:46:42;3.00;99.90
11925;DHT22;6022;48.768;18.608;2022-11-20T08:49:12;3.00;99.90
11925;DHT22;6022;48.768;18.608;2022-11-20T08:51:44;3.00;99.90
11925;DHT22;6022;48.768;18.608;2022-11-20T08:54:16;2.90;99.90
11925;DHT22;6022;48.768;18.608;2022-11-20T08:56:51;3.20;99.90
11925;DHT22;6022;48.768;18.608;2022-11-20T08:59:25;2.70;99.90
11925;DHT22;6022;48.768;18.608;2022-11-20T09:02:13;3.00;99.90
11925;DHT22;6022;48.768;18.608;2022-11-20T09:04:42;3.00;99.90
11925;DHT22;6022;48.768;18.608;2022-11-20T09:07:09;3.10;99.90
11925;DHT22;6022;48.768;18.608;2022-11-20T09:09:40;2.90;99.90
11925;DHT22;6022;48.768;18.608;2022-11-20T09:12:08;3.10;99.90
11925;DHT22;6022;48.768;18.608;2022-11-20T09:14:36;3.00;99.90
11925;DHT22;6022;48.768;18.608;2022-11-20T09:17:05;2.80;99.90
11925;DHT22;6022;48.768;18.608;2022-11-20T09:19:34;3.00;99.90
11925;DHT22;6022;48.768;18.608;2022-11-20T09:22:02;3.00;99.90
11925;DHT22;6022;48.768;18.608;2022-11-20T09:24:30;3.00;99.90
11925;DHT22;6022;48.768;18.608;2022-11-20T09:27:00;3.10;99.90
11925;DHT22;6022;48.768;18.608;2022-11-20T09:29:29;3.20;99.90
11925;DHT22;6022;48.768;18.608;2022-11-20T09:31:56;3.10;99.90
11925;DHT22;6022;48.768;18.608;2022-11-20T09:34:27;3.20;99.90
11925;DHT22;6022;48.768;18.608;2022-11-20T09:36:57;3.20;99.90
11925;DHT22;6022;48.768;18.608;2022-11-20T09:39:32;3.30;99.90
11925;DHT22;6022;48.768;18.608;2022-11-20T09:42:30;3.30;99.90
11925;DHT22;6022;48.768;18.608;2022-11-20T09:48:48;3.50;99.90
11925;DHT22;6022;48.768;18.608;2022-11-20T09:51:48;3.30;99.90
11925;DHT22;6022;48.768;18.608;2022-11-20T09:54:31;3.30;99.90
11925;DHT22;6022;48.768;18.608;2022-11-20T09:57:11;3.40;99.90
11925;DHT22;6022;48.768;18.608;2022-11-20T09:59:51;3.40;99.90
11925;DHT22;6022;48.768;18.608;2022-11-20T10:05:21;3.60;99.90
11925;DHT22;6022;48.768;18.608;2022-11-20T10:14:26;3.40;99.90
11925;DHT22;6022;48.768;18.608;2022-11-20T10:26:43;3.80;99.90
11925;DHT22;6022;48.768;18.608;2022-11-20T10:29:34;3.90;99.90
11925;DHT22;6022;48.768;18.608;2022-11-20T10:32:19;4.10;99.90
11925;DHT22;6022;48.768;18.608;2022-11-20T10:35:03;4.00;99.90
11925;DHT22;6022;48.768;18.608;2022-11-20T10:37:48;4.20;99.90
11925;DHT22;6022;48.768;18.608;2022-11-20T10:40:35;3.90;99.90
11925;DHT22;6022;48.768;18.608;2022-11-20T10:43:19;4.00;99.90
11925;DHT22;6022;48.768;18.608;2022-11-20T10:46:00;3.90;99.90
11925;DHT22;6022;48.768;18.608;2022-11-20T10:48:33;3.80;99.90
11925;DHT22;6022;48.768;18.608;2022-11-20T10:54:47;3.80;99.90
11925;DHT22;6022;48.768;18.608;2022-11-20T11:00:14;3.90;99.90
11925;DHT22;6022;48.768;18.608;2022-11-20T11:02:53;4.10;99.90
11925;DHT22;6022;48.768;18.608;2022-11-20T11:05:37;4.10;99.90
11925;DHT22;6022;48.768;18.608;2022-11-20T11:08:17;4.00;99.90
11925;DHT22;6022;48.768;18.608;2022-11-20T11:11:03;3.90;99.90
11925;DHT22;6022;48.768;18.608;2022-11-20T11:13:46;4.00;99.90
11925;DHT22;6022;48.768;18.608;2022-11-20T11:16:25;4.00;99.90
11925;DHT22;6022;48.768;18.608;2022-11-20T11:19:11;4.00;99.90
11925;DHT22;6022;48.768;18.608;2022-11-20T11:21:55;4.00;99.90
11925;DHT22;6022;48.768;18.608;2022-11-20T11:24:28;4.00;99.90
11925;DHT22;6022;48.768;18.608;2022-11-20T11:27:14;4.00;99.90
11925;DHT22;6022;48.768;18.608;2022-11-20T11:29:46;4.30;99.90
11925;DHT22;6022;48.768;18.608;2022-11-20T11:32:17;4.10;99.90
11925;DHT22;6022;48.768;18.608;2022-11-20T11:35:07;4.20;99.90
11925;DHT22;6022;48.768;18.608;2022-11-20T11:37:47;4.10;99.90
11925;DHT22;6022;48.768;18.608;2022-11-20T11:40:17;4.40;99.90
11925;DHT22;6022;48.768;18.608;2022-11-20T11:42:57;4.30;99.90
11925;DHT22;6022;48.768;18.608;2022-11-20T11:45:30;4.30;99.90
11925;DHT22;6022;48.768;18.608;2022-11-20T11:48:00;4.60;99.90
11925;DHT22;6022;48.768;18.608;2022-11-20T11:50:31;4.40;99.90
11925;DHT22;6022;48.768;18.608;2022-11-20T11:53:19;4.50;99.90
11925;DHT22;6022;48.768;18.608;2022-11-20T11:56:08;4.60;99.90
11925;DHT22;6022;48.768;18.608;2022-11-20T11:58:48;4.70;99.90
11925;DHT22;6022;48.768;18.608;2022-11-20T12:01:51;5.90;99.90
11925;DHT22;6022;48.768;18.608;2022-11-20T12:04:49;4.60;99.90
11925;DHT22;6022;48.768;18.608;2022-11-20T12:07:45;4.50;99.90
11925;DHT22;6022;48.768;18.608;2022-11-20T12:17:01;4.60;99.90
11925;DHT22;6022;48.768;18.608;2022-11-20T12:19:37;4.60;99.90
11925;DHT22;6022;48.768;18.608;2022-11-20T12:36:57;4.70;99.90
11925;DHT22;6022;48.768;18.608;2022-11-20T12:39:42;4.60;99.90
11925;DHT22;6022;48.768;18.608;2022-11-20T12:42:43;4.80;99.90
11925;DHT22;6022;48.768;18.608;2022-11-20T12:46:08;4.60;99.90
11925;DHT22;6022;48.768;18.608;2022-11-20T12:54:46;4.60;99.90
11925;DHT22;6022;48.768;18.608;2022-11-20T13:08:32;4.90;99.90
11925;DHT22;6022;48.768;18.608;2022-11-20T13:19:18;5.00;99.90
11925;DHT22;6022;48.768;18.608;2022-11-20T13:21:48;4.90;99.90
11925;DHT22;6022;48.768;18.608;2022-11-20T13:29:42;5.60;99.90
11925;DHT22;6022;48.768;18.608;2022-11-20T13:32:17;5.40;99.90
11925;DHT22;6022;48.768;18.608;2022-11-20T13:35:00;5.20;99.90
11925;DHT22;6022;48.768;18.608;2022-11-20T13:37:38;5.70;99.90
11925;DHT22;6022;48.768;18.608;2022-11-20T13:42:53;5.50;99.90
11925;DHT22;6022;48.768;18.608;2022-11-20T13:45:27;5.50;99.90
11925;DHT22;6022;48.768;18.608;2022-11-20T13:48:15;5.50;99.90
11925;DHT22;6022;48.768;18.608;2022-11-20T14:02:43;5.40;99.90
11925;DHT22;6022;48.768;18.608;2022-11-20T14:05:22;5.40;99.90
11925;DHT22;6022;48.768;18.608;2022-11-20T14:07:51;5.30;99.90
11925;DHT22;6022;48.768;18.608;2022-11-20T14:10:29;5.40;99.90
11925;DHT22;6022;48.768;18.608;2022-11-20T14:13:11;5.30;99.90
11925;DHT22;6022;48.768;18.608;2022-11-20T14:15:56;5.20;99.90
11925;DHT22;6022;48.768;18.608;2022-11-20T14:18:26;5.20;99.90
11925;DHT22;6022;48.768;18.608;2022-11-20T14:21:00;5.20;99.90
11925;DHT22;6022;48.768;18.608;2022-11-20T14:23:30;5.20;99.90
11925;DHT22;6022;48.768;18.608;2022-11-20T14:25:57;5.10;99.90
11925;DHT22;6022;48.768;18.608;2022-11-20T14:28:30;5.10;99.90
11925;DHT22;6022;48.768;18.608;2022-11-20T14:30:58;5.00;99.90
11925;DHT22;6022;48.768;18.608;2022-11-20T14:33:26;5.00;99.90
11925;DHT22;6022;48.768;18.608;2022-11-20T14:35:55;5.00;99.90
11925;DHT22;6022;48.768;18.608;2022-11-20T14:38:28;5.00;99.90
11925;DHT22;6022;48.768;18.608;2022-11-20T14:41:14;5.10;99.90
11925;DHT22;6022;48.768;18.608;2022-11-20T14:43:54;4.90;99.90
11925;DHT22;6022;48.768;18.608;2022-11-20T14:46:25;4.90;99.90
11925;DHT22;6022;48.768;18.608;2022-11-20T14:48:56;4.80;99.90
11925;DHT22;6022;48.768;18.608;2022-11-20T14:51:33;4.90;99.90
11925;DHT22;6022;48.768;18.608;2022-11-20T14:54:21;4.60;99.90
11925;DHT22;6022;48.768;18.608;2022-11-20T14:57:01;4.90;99.90
11925;DHT22;6022;48.768;18.608;2022-11-20T14:59:32;4.70;99.90
11925;DHT22;6022;48.768;18.608;2022-11-20T15:02:04;4.70;99.90
11925;DHT22;6022;48.768;18.608;2022-11-20T15:04:50;4.70;99.90
11925;DHT22;6022;48.768;18.608;2022-11-20T15:07:38;4.60;99.90
11925;DHT22;6022;48.768;18.608;2022-11-20T15:12:54;4.40;99.90
11925;DHT22;6022;48.768;18.608;2022-11-20T15:15:35;4.60;99.90
11925;DHT22;6022;48.768;18.608;2022-11-20T15:18:12;4.30;99.90
11925;DHT22;6022;48.768;18.608;2022-11-20T15:20:42;4.60;99.90
11925;DHT22;6022;48.768;18.608;2022-11-20T15:23:12;4.00;99.90
11925;DHT22;6022;48.768;18.608;2022-11-20T15:25:41;4.30;99.90
11925;DHT22;6022;48.768;18.608;2022-11-20T15:28:21;4.50;99.90
11925;DHT22;6022;48.768;18.608;2022-11-20T15:30:54;4.30;99.90
11925;DHT22;6022;48.768;18.608;2022-11-20T15:33:22;4.10;99.90
11925;DHT22;6022;48.768;18.608;2022-11-20T15:35:50;4.30;99.90
11925;DHT22;6022;48.768;18.608;2022-11-20T15:38:17;4.50;99.90
11925;DHT22;6022;48.768;18.608;2022-11-20T15:40:45;4.30;99.90
11925;DHT22;6022;48.768;18.608;2022-11-20T15:43:12;4.30;99.90
11925;DHT22;6022;48.768;18.608;2022-11-20T15:45:42;4.40;99.90
11925;DHT22;6022;48.768;18.608;2022-11-20T15:48:18;4.50;99.90
11925;DHT22;6022;48.768;18.608;2022-11-20T15:50:59;4.30;99.90
11925;DHT22;6022;48.768;18.608;2022-11-20T15:53:30;4.30;99.90
11925;DHT22;6022;48.768;18.608;2022-11-20T15:55:57;4.20;99.90
11925;DHT22;6022;48.768;18.608;2022-11-20T15:58:25;4.20;99.90
11925;DHT22;6022;48.768;18.608;2022-11-20T16:00:53;4.20;99.90
11925;DHT22;6022;48.768;18.608;2022-11-20T16:03:20;4.20;99.90
11925;DHT22;6022;48.768;18.608;2022-11-20T16:05:48;4.10;99.90
11925;DHT22;6022;48.768;18.608;2022-11-20T16:08:15;4.20;99.90
11925;DHT22;6022;48.768;18.608;2022-11-20T16:10:43;4.20;99.90
11925;DHT22;6022;48.768;18.608;2022-11-20T16:13:16;4.00;99.90
11925;DHT22;6022;48.768;18.608;2022-11-20T16:16:07;3.90;99.90
11925;DHT22;6022;48.768;18.608;2022-11-20T16:18:45;3.90;99.90
11925;DHT22;6022;48.768;18.608;2022-11-20T16:21:12;4.00;99.90
11925;DHT22;6022;48.768;18.608;2022-11-20T16:23:40;4.00;99.90
11925;DHT22;6022;48.768;18.608;2022-11-20T16:26:13;3.90;99.90
11925;DHT22;6022;48.768;18.608;2022-11-20T16:28:58;3.90;99.90
11925;DHT22;6022;48.768;18.608;2022-11-20T16:31:27;3.80;99.90
11925;DHT22;6022;48.768;18.608;2022-11-20T16:33:56;3.90;99.90
11925;DHT22;6022;48.768;18.608;2022-11-20T16:36:26;3.90;99.90
11925;DHT22;6022;48.768;18.608;2022-11-20T16:38:57;3.90;99.90
11925;DHT22;6022;48.768;18.608;2022-11-20T16:41:29;3.90;99.90
11925;DHT22;6022;48.768;18.608;2022-11-20T16:44:00;3.90;99.90
11925;DHT22;6022;48.768;18.608;2022-11-20T16:46:30;3.90;99.90
11925;DHT22;6022;48.768;18.608;2022-11-20T16:49:00;3.90;99.90
11925;DHT22;6022;48.768;18.608;2022-11-20T16:51:33;4.00;99.90
11925;DHT22;6022;48.768;18.608;2022-11-20T16:54:07;3.80;99.90
11925;DHT22;6022;48.768;18.608;2022-11-20T16:56:38;3.90;99.90
11925;DHT22;6022;48.768;18.608;2022-11-20T16:59:07;4.20;99.90
11925;DHT22;6022;48.768;18.608;2022-11-20T17:01:35;4.10;99.90
11925;DHT22;6022;48.768;18.608;2022-11-20T17:04:06;3.90;99.90
11925;DHT22;6022;48.768;18.608;2022-11-20T17:06:39;3.90;99.90
11925;DHT22;6022;48.768;18.608;2022-11-20T17:09:11;4.20;99.90
11925;DHT22;6022;48.768;18.608;2022-11-20T17:11:39;3.70;99.90
11925;DHT22;6022;48.768;18.608;2022-11-20T17:14:10;4.00;99.90
11925;DHT22;6022;48.768;18.608;2022-11-20T17:16:37;3.90;99.90
11925;DHT22;6022;48.768;18.608;2022-11-20T17:19:06;3.90;99.90
11925;DHT22;6022;48.768;18.608;2022-11-20T17:21:35;4.10;99.90
11925;DHT22;6022;48.768;18.608;2022-11-20T17:24:05;3.90;99.90
11925;DHT22;6022;48.768;18.608;2022-11-20T17:26:35;3.90;99.90
11925;DHT22;6022;48.768;18.608;2022-11-20T17:29:08;3.90;99.90
11925;DHT22;6022;48.768;18.608;2022-11-20T17:31:41;3.90;99.90
11925;DHT22;6022;48.768;18.608;2022-11-20T17:34:14;4.20;99.90
11925;DHT22;6022;48.768;18.608;2022-11-20T17:36:42;3.90;99.90
11925;DHT22;6022;48.768;18.608;2022-11-20T17:39:14;3.90;99.90
11925;DHT22;6022;48.768;18.608;2022-11-20T17:41:45;3.90;99.90
11925;DHT22;6022;48.768;18.608;2022-11-20T17:44:32;4.20;99.90
11925;DHT22;6022;48.768;18.608;2022-11-20T17:47:00;4.20;99.90
11925;DHT22;6022;48.768;18.608;2022-11-20T17:49:28;3.90;99.90
11925;DHT22;6022;48.768;18.608;2022-11-20T17:51:57;3.70;99.90
11925;DHT22;6022;48.768;18.608;2022-11-20T17:54:24;3.90;99.90
11925;DHT22;6022;48.768;18.608;2022-11-20T17:56:53;3.90;99.90
11925;DHT22;6022;48.768;18.608;2022-11-20T17:59:43;3.90;99.90
11925;DHT22;6022;48.768;18.608;2022-11-20T18:02:10;3.70;99.90
11925;DHT22;6022;48.768;18.608;2022-11-20T18:04:37;3.70;99.90
11925;DHT22;6022;48.768;18.608;2022-11-20T18:07:08;3.80;99.90
11925;DHT22;6022;48.768;18.608;2022-11-20T18:09:36;3.90;99.90
11925;DHT22;6022;48.768;18.608;2022-11-20T18:12:04;3.80;99.90